Star Markella — V7KL3 — position and weather

sailwx.info

Track history (hours):
 
Tides and Currents Weather Stations Pressure Air Temp Water Temp Dewpoint Dewpoint Depression Visibility Wind Speed Wind Dir Waves Ship Positions

Star Markella

Last reported at 2016-Nov-29 01:29 UTC. Time now 2016-Dec-09 05:57 UTC.
Position N 45°34' W 125°04'.
Warning: this ship's position is 10 days out of date.

Length 229 m; draft 12.2 m.

Type: Cargo ship. MMSI: 538002640.

Date/timePositionNaut miles runAvg speedWind from/ knotsBaromVisibWave heightAir tempDewpointWater temp
2016-Nov-29 01:29N 45°34' W 125°04'8 9.1
2016-Nov-29 00:33N 45°40' W 124°55'9 9.0
2016-Nov-28 23:34N 45°46' W 124°46'8 8.4
2016-Nov-28 22:33N 45°52' W 124°37'8 8.4
2016-Nov-28 21:33N 45°57' W 124°28'8 8.0
2016-Nov-28 20:33N 46°03' W 124°20'8 8.1
2016-Nov-28 19:33N 46°09' W 124°12'7 6.6
2016-Nov-28 18:33N 46°14' W 124°06'6 6.2
2016-Nov-28 17:33N 46°13' W 123°58'7 7.4
2016-Nov-28 16:34N 46°13' W 123°47'1110.8
2016-Nov-28 15:34N 46°16' W 123°32'9 9.2
2016-Nov-28 14:34N 46°09' W 123°23'1211.5
2016-Nov-28 13:33N 46°11' W 123°06'1110.5
2016-Nov-28 12:33N 46°05' W 122°54'3 3.4
2016-Nov-28 11:33N 46°02' W 122°52'0 0.0
2016-Nov-28 10:30N 46°02' W 122°52'0 0.0
2016-Nov-28 09:33N 46°02' W 122°52'0 0.0
2016-Nov-28 08:33N 46°02' W 122°52'0 0.0
2016-Nov-28 07:30N 46°02' W 122°52'0 0.0
2016-Nov-28 06:34N 46°02' W 122°52'0 0.0
2016-Nov-28 05:33N 46°02' W 122°52'0 0.0
2016-Nov-28 04:33N 46°02' W 122°52'0 0.0
2016-Nov-28 03:30N 46°02' W 122°52'0 0.0
2016-Nov-28 02:33N 46°02' W 122°52'0 0.0
2016-Nov-28 01:27N 46°02' W 122°52'0 0.0
2016-Nov-28 00:33N 46°02' W 122°52'0 0.0
2016-Nov-27 23:33N 46°02' W 122°52'0 0.0
2016-Nov-27 22:33N 46°02' W 122°52'0 0.0
2016-Nov-27 21:33N 46°02' W 122°52'0 0.0
2016-Nov-27 20:30N 46°02' W 122°52'0 0.0
2016-Nov-27 19:30N 46°02' W 122°52'0 0.0
2016-Nov-27 18:30N 46°02' W 122°52'0 0.0
2016-Nov-27 17:24N 46°02' W 122°52'0 0.0
2016-Nov-27 16:30N 46°02' W 122°52'0 0.0
2016-Nov-27 15:30N 46°02' W 122°52'0 0.0
2016-Nov-27 14:30N 46°02' W 122°52'0 0.0
2016-Nov-27 13:33N 46°02' W 122°52'0 0.0
2016-Nov-27 12:33N 46°02' W 122°52'0 0.0
2016-Nov-27 11:30N 46°02' W 122°52'0 0.0
2016-Nov-27 10:33N 46°02' W 122°52'0 0.0
2016-Nov-27 09:30N 46°02' W 122°52'0 0.0
2016-Nov-27 08:30N 46°02' W 122°52'0 0.0
2016-Nov-27 07:33N 46°02' W 122°52'0 0.0
2016-Nov-27 06:30N 46°02' W 122°52'0 0.0
2016-Nov-27 05:30N 46°02' W 122°52'0 0.0
2016-Nov-27 04:33N 46°02' W 122°52'0 0.0
2016-Nov-27 03:30N 46°02' W 122°52'0 0.0
2016-Nov-27 02:30N 46°02' W 122°52'0 0.0
2016-Nov-27 01:30N 46°02' W 122°52'0 0.0
2016-Nov-27 00:30N 46°02' W 122°52'0 0.0
2016-Nov-26 23:30N 46°02' W 122°52'0 0.0
2016-Nov-26 22:27N 46°02' W 122°52'0 0.0
2016-Nov-26 21:27N 46°02' W 122°52'0 0.0
2016-Nov-26 20:30N 46°02' W 122°52'0 0.0
2016-Nov-26 19:33N 46°02' W 122°52'0 0.0
2016-Nov-26 18:33N 46°02' W 122°52'0 0.0
2016-Nov-26 17:33N 46°02' W 122°52'0 0.0
2016-Nov-26 16:30N 46°02' W 122°52'0 0.0
2016-Nov-26 15:33N 46°02' W 122°52'0 0.0
2016-Nov-26 14:30N 46°02' W 122°52'0 0.0
2016-Nov-26 13:30N 46°02' W 122°52'0 0.0
2016-Nov-26 12:33N 46°02' W 122°52'1 1.2
2016-Nov-26 11:33N 46°03' W 122°53'0 0.0
2016-Nov-26 10:33N 46°03' W 122°53'0 0.0
2016-Nov-26 09:33N 46°03' W 122°53'0 0.0
2016-Nov-26 08:33N 46°03' W 122°53'0 0.0
2016-Nov-26 07:33N 46°03' W 122°53'0 0.0
2016-Nov-26 06:33N 46°03' W 122°53'0 0.0
2016-Nov-26 05:33N 46°03' W 122°53'0 0.0
2016-Nov-26 04:33N 46°03' W 122°53'0 0.0
2016-Nov-26 03:33N 46°03' W 122°53'0 0.0
2016-Nov-26 02:30N 46°03' W 122°53'0 0.0
2016-Nov-26 01:30N 46°03' W 122°53'0 0.0
2016-Nov-26 00:33N 46°03' W 122°53'0 0.0
2016-Nov-25 23:33N 46°03' W 122°53'0 0.0
2016-Nov-25 22:33N 46°03' W 122°53'0 0.0
2016-Nov-25 21:30N 46°03' W 122°53'0 0.0
2016-Nov-25 20:33N 46°03' W 122°53'0 0.0
2016-Nov-25 19:30N 46°03' W 122°53'0 0.0
2016-Nov-25 18:30N 46°03' W 122°53'0 0.0
2016-Nov-25 17:33N 46°03' W 122°53'0 0.0
2016-Nov-25 16:30N 46°03' W 122°53'0 0.0
2016-Nov-25 15:33N 46°03' W 122°53'0 0.0
2016-Nov-25 14:33N 46°03' W 122°53'0 0.0
2016-Nov-25 13:33N 46°03' W 122°53'0 0.0
2016-Nov-25 12:33N 46°03' W 122°53'0 0.0
2016-Nov-25 11:33N 46°03' W 122°53'0 0.0
2016-Nov-25 10:33N 46°03' W 122°53'0 0.0
2016-Nov-25 09:33N 46°03' W 122°53'0 0.0
2016-Nov-25 08:33N 46°03' W 122°53'0 0.0
2016-Nov-25 07:33N 46°03' W 122°53'0 0.0
2016-Nov-25 06:33N 46°03' W 122°53'0 0.0
2016-Nov-25 05:33N 46°03' W 122°53'0 0.0
2016-Nov-25 04:33N 46°03' W 122°53'0 0.0
2016-Nov-25 03:33N 46°03' W 122°53'0 0.0
2016-Nov-25 02:33N 46°03' W 122°53'0 0.0
2016-Nov-25 01:33N 46°03' W 122°53'0 0.0
2016-Nov-25 00:33N 46°03' W 122°53'0 0.0
2016-Nov-24 23:30N 46°03' W 122°53'0 0.0
2016-Nov-24 22:33N 46°03' W 122°53'0 0.0
2016-Nov-24 21:33N 46°03' W 122°53'0 0.0
2016-Nov-24 20:30N 46°03' W 122°53'0 0.0
2016-Nov-24 19:33N 46°03' W 122°53'0 0.0
2016-Nov-24 18:33N 46°03' W 122°53'0 0.0
2016-Nov-24 17:33N 46°03' W 122°53'0 0.0
2016-Nov-24 16:30N 46°03' W 122°53'0 0.0
2016-Nov-24 15:33N 46°03' W 122°53'0 0.0
2016-Nov-24 14:33N 46°03' W 122°53'0 0.0
2016-Nov-24 13:33N 46°03' W 122°53'0 0.0
2016-Nov-24 12:33N 46°03' W 122°53'0 0.0
2016-Nov-24 11:33N 46°03' W 122°53'0 0.0
2016-Nov-24 10:33N 46°03' W 122°53'0 0.0
2016-Nov-24 09:33N 46°03' W 122°53'0 0.0
2016-Nov-24 08:30N 46°03' W 122°53'0 0.0
2016-Nov-24 07:30N 46°03' W 122°53'0 0.0
2016-Nov-24 06:33N 46°03' W 122°53'0 0.0
2016-Nov-24 05:30N 46°03' W 122°53'0 0.0
2016-Nov-24 04:33N 46°03' W 122°53'0 0.0
2016-Nov-24 03:33N 46°03' W 122°53'0 0.0
2016-Nov-24 02:33N 46°03' W 122°53'0 0.0
2016-Nov-24 01:33N 46°03' W 122°53'0 0.0
2016-Nov-24 00:33N 46°03' W 122°53'0 0.0
2016-Nov-23 23:33N 46°03' W 122°53'0 0.0
2016-Nov-23 22:33N 46°03' W 122°53'0 0.0
2016-Nov-23 21:33N 46°03' W 122°53'0 0.0
2016-Nov-23 20:30N 46°03' W 122°53'0 0.0
2016-Nov-23 19:33N 46°03' W 122°53'0 0.0
2016-Nov-23 18:33N 46°03' W 122°53'0 0.0
2016-Nov-23 17:30N 46°03' W 122°53'0 0.0
2016-Nov-23 16:33N 46°03' W 122°53'0 0.0
2016-Nov-23 15:33N 46°03' W 122°53'0 0.0
2016-Nov-23 14:33N 46°03' W 122°53'0 0.0
2016-Nov-23 13:30N 46°03' W 122°53'0 0.0
2016-Nov-23 12:33N 46°03' W 122°53'0 0.0
2016-Nov-23 11:33N 46°03' W 122°53'0 0.0
2016-Nov-23 10:33N 46°03' W 122°53'0 0.0
2016-Nov-23 09:30N 46°03' W 122°53'0 0.0
2016-Nov-23 08:33N 46°03' W 122°53'0 0.0
2016-Nov-23 07:33N 46°03' W 122°53'0 0.0
2016-Nov-23 06:33N 46°03' W 122°53'7 2.3
2016-Nov-23 03:34N 46°08' W 122°60'1010.2
2016-Nov-23 02:33N 46°10' W 123°14'19 9.4
2016-Nov-23 00:34N 46°15' W 123°40'1010.1
2016-Nov-22 23:34N 46°11' W 123°54'9 9.5
2016-Nov-22 22:34N 46°14' W 124°07'17 8.4
2016-Nov-22 20:33N 46°01' W 124°22'3 2.8
2016-Nov-22 19:34N 46°04' W 124°24'7 3.7
2016-Nov-22 17:34N 46°11' W 124°25'8 8.1
2016-Nov-22 16:33N 46°12' W 124°37'10 9.9
2016-Nov-22 15:34N 46°12' W 124°51'1010.3
2016-Nov-22 14:34N 46°12' W 125°06'1110.8
2016-Nov-22 13:34N 46°12' W 125°22'  
Track history (hours):
 
Tides and Currents Weather Stations Pressure Air Temp Water Temp Dewpoint Dewpoint Depression Visibility Wind Speed Wind Dir Waves Ship Positions

Star Markella

Last reported at 2016-Nov-29 01:29 UTC. Time now 2016-Dec-09 05:57 UTC.
Position N 45°34' W 125°04'.
Warning: this ship's position is 10 days out of date.

Length 229 m; draft 12.2 m.

Type: Cargo ship. MMSI: 538002640.

Date/timePositionNaut miles runAvg speedWind from/ knotsBaromVisibWave heightAir tempDewpointWater temp
2016-Nov-29 01:29N 45°34' W 125°04'8 9.1
2016-Nov-29 00:33N 45°40' W 124°55'9 9.0
2016-Nov-28 23:34N 45°46' W 124°46'8 8.4
2016-Nov-28 22:33N 45°52' W 124°37'8 8.4
2016-Nov-28 21:33N 45°57' W 124°28'8 8.0
2016-Nov-28 20:33N 46°03' W 124°20'8 8.1
2016-Nov-28 19:33N 46°09' W 124°12'7 6.6
2016-Nov-28 18:33N 46°14' W 124°06'6 6.2
2016-Nov-28 17:33N 46°13' W 123°58'7 7.4
2016-Nov-28 16:34N 46°13' W 123°47'1110.8
2016-Nov-28 15:34N 46°16' W 123°32'9 9.2
2016-Nov-28 14:34N 46°09' W 123°23'1211.5
2016-Nov-28 13:33N 46°11' W 123°06'1110.5
2016-Nov-28 12:33N 46°05' W 122°54'3 3.4
2016-Nov-28 11:33N 46°02' W 122°52'0 0.0
2016-Nov-28 10:30N 46°02' W 122°52'0 0.0
2016-Nov-28 09:33N 46°02' W 122°52'0 0.0
2016-Nov-28 08:33N 46°02' W 122°52'0 0.0
2016-Nov-28 07:30N 46°02' W 122°52'0 0.0
2016-Nov-28 06:34N 46°02' W 122°52'0 0.0
2016-Nov-28 05:33N 46°02' W 122°52'0 0.0
2016-Nov-28 04:33N 46°02' W 122°52'0 0.0
2016-Nov-28 03:30N 46°02' W 122°52'0 0.0
2016-Nov-28 02:33N 46°02' W 122°52'0 0.0
2016-Nov-28 01:27N 46°02' W 122°52'0 0.0
2016-Nov-28 00:33N 46°02' W 122°52'0 0.0
2016-Nov-27 23:33N 46°02' W 122°52'0 0.0
2016-Nov-27 22:33N 46°02' W 122°52'0 0.0
2016-Nov-27 21:33N 46°02' W 122°52'0 0.0
2016-Nov-27 20:30N 46°02' W 122°52'0 0.0
2016-Nov-27 19:30N 46°02' W 122°52'0 0.0
2016-Nov-27 18:30N 46°02' W 122°52'0 0.0
2016-Nov-27 17:24N 46°02' W 122°52'0 0.0
2016-Nov-27 16:30N 46°02' W 122°52'0 0.0
2016-Nov-27 15:30N 46°02' W 122°52'0 0.0
2016-Nov-27 14:30N 46°02' W 122°52'0 0.0
2016-Nov-27 13:33N 46°02' W 122°52'0 0.0
2016-Nov-27 12:33N 46°02' W 122°52'0 0.0
2016-Nov-27 11:30N 46°02' W 122°52'0 0.0
2016-Nov-27 10:33N 46°02' W 122°52'0 0.0
2016-Nov-27 09:30N 46°02' W 122°52'0 0.0
2016-Nov-27 08:30N 46°02' W 122°52'0 0.0
2016-Nov-27 07:33N 46°02' W 122°52'0 0.0
2016-Nov-27 06:30N 46°02' W 122°52'0 0.0
2016-Nov-27 05:30N 46°02' W 122°52'0 0.0
2016-Nov-27 04:33N 46°02' W 122°52'0 0.0
2016-Nov-27 03:30N 46°02' W 122°52'0 0.0
2016-Nov-27 02:30N 46°02' W 122°52'0 0.0
2016-Nov-27 01:30N 46°02' W 122°52'0 0.0
2016-Nov-27 00:30N 46°02' W 122°52'0 0.0
2016-Nov-26 23:30N 46°02' W 122°52'0 0.0
2016-Nov-26 22:27N 46°02' W 122°52'0 0.0
2016-Nov-26 21:27N 46°02' W 122°52'0 0.0
2016-Nov-26 20:30N 46°02' W 122°52'0 0.0
2016-Nov-26 19:33N 46°02' W 122°52'0 0.0
2016-Nov-26 18:33N 46°02' W 122°52'0 0.0
2016-Nov-26 17:33N 46°02' W 122°52'0 0.0
2016-Nov-26 16:30N 46°02' W 122°52'0 0.0
2016-Nov-26 15:33N 46°02' W 122°52'0 0.0
2016-Nov-26 14:30N 46°02' W 122°52'0 0.0
2016-Nov-26 13:30N 46°02' W 122°52'0 0.0
2016-Nov-26 12:33N 46°02' W 122°52'1 1.2
2016-Nov-26 11:33N 46°03' W 122°53'0 0.0
2016-Nov-26 10:33N 46°03' W 122°53'0 0.0
2016-Nov-26 09:33N 46°03' W 122°53'0 0.0
2016-Nov-26 08:33N 46°03' W 122°53'0 0.0
2016-Nov-26 07:33N 46°03' W 122°53'0 0.0
2016-Nov-26 06:33N 46°03' W 122°53'0 0.0
2016-Nov-26 05:33N 46°03' W 122°53'0 0.0
2016-Nov-26 04:33N 46°03' W 122°53'0 0.0
2016-Nov-26 03:33N 46°03' W 122°53'0 0.0
2016-Nov-26 02:30N 46°03' W 122°53'0 0.0
2016-Nov-26 01:30N 46°03' W 122°53'0 0.0
2016-Nov-26 00:33N 46°03' W 122°53'0 0.0
2016-Nov-25 23:33N 46°03' W 122°53'0 0.0
2016-Nov-25 22:33N 46°03' W 122°53'0 0.0
2016-Nov-25 21:30N 46°03' W 122°53'0 0.0
2016-Nov-25 20:33N 46°03' W 122°53'0 0.0
2016-Nov-25 19:30N 46°03' W 122°53'0 0.0
2016-Nov-25 18:30N 46°03' W 122°53'0 0.0
2016-Nov-25 17:33N 46°03' W 122°53'0 0.0
2016-Nov-25 16:30N 46°03' W 122°53'0 0.0
2016-Nov-25 15:33N 46°03' W 122°53'0 0.0
2016-Nov-25 14:33N 46°03' W 122°53'0 0.0
2016-Nov-25 13:33N 46°03' W 122°53'0 0.0
2016-Nov-25 12:33N 46°03' W 122°53'0 0.0
2016-Nov-25 11:33N 46°03' W 122°53'0 0.0
2016-Nov-25 10:33N 46°03' W 122°53'0 0.0
2016-Nov-25 09:33N 46°03' W 122°53'0 0.0
2016-Nov-25 08:33N 46°03' W 122°53'0 0.0
2016-Nov-25 07:33N 46°03' W 122°53'0 0.0
2016-Nov-25 06:33N 46°03' W 122°53'0 0.0
2016-Nov-25 05:33N 46°03' W 122°53'0 0.0
2016-Nov-25 04:33N 46°03' W 122°53'0 0.0
2016-Nov-25 03:33N 46°03' W 122°53'0 0.0
2016-Nov-25 02:33N 46°03' W 122°53'0 0.0
2016-Nov-25 01:33N 46°03' W 122°53'0 0.0
2016-Nov-25 00:33N 46°03' W 122°53'0 0.0
2016-Nov-24 23:30N 46°03' W 122°53'0 0.0
2016-Nov-24 22:33N 46°03' W 122°53'0 0.0
2016-Nov-24 21:33N 46°03' W 122°53'0 0.0
2016-Nov-24 20:30N 46°03' W 122°53'0 0.0
2016-Nov-24 19:33N 46°03' W 122°53'0 0.0
2016-Nov-24 18:33N 46°03' W 122°53'0 0.0
2016-Nov-24 17:33N 46°03' W 122°53'0 0.0
2016-Nov-24 16:30N 46°03' W 122°53'0 0.0
2016-Nov-24 15:33N 46°03' W 122°53'0 0.0
2016-Nov-24 14:33N 46°03' W 122°53'0 0.0
2016-Nov-24 13:33N 46°03' W 122°53'0 0.0
2016-Nov-24 12:33N 46°03' W 122°53'0 0.0
2016-Nov-24 11:33N 46°03' W 122°53'0 0.0
2016-Nov-24 10:33N 46°03' W 122°53'0 0.0
2016-Nov-24 09:33N 46°03' W 122°53'0 0.0
2016-Nov-24 08:30N 46°03' W 122°53'0 0.0
2016-Nov-24 07:30N 46°03' W 122°53'0 0.0
2016-Nov-24 06:33N 46°03' W 122°53'0 0.0
2016-Nov-24 05:30N 46°03' W 122°53'0 0.0
2016-Nov-24 04:33N 46°03' W 122°53'0 0.0
2016-Nov-24 03:33N 46°03' W 122°53'0 0.0
2016-Nov-24 02:33N 46°03' W 122°53'0 0.0
2016-Nov-24 01:33N 46°03' W 122°53'0 0.0
2016-Nov-24 00:33N 46°03' W 122°53'0 0.0
2016-Nov-23 23:33N 46°03' W 122°53'0 0.0
2016-Nov-23 22:33N 46°03' W 122°53'0 0.0
2016-Nov-23 21:33N 46°03' W 122°53'0 0.0
2016-Nov-23 20:30N 46°03' W 122°53'0 0.0
2016-Nov-23 19:33N 46°03' W 122°53'0 0.0
2016-Nov-23 18:33N 46°03' W 122°53'0 0.0
2016-Nov-23 17:30N 46°03' W 122°53'0 0.0
2016-Nov-23 16:33N 46°03' W 122°53'0 0.0
2016-Nov-23 15:33N 46°03' W 122°53'0 0.0
2016-Nov-23 14:33N 46°03' W 122°53'0 0.0
2016-Nov-23 13:30N 46°03' W 122°53'0 0.0
2016-Nov-23 12:33N 46°03' W 122°53'0 0.0
2016-Nov-23 11:33N 46°03' W 122°53'0 0.0
2016-Nov-23 10:33N 46°03' W 122°53'0 0.0
2016-Nov-23 09:30N 46°03' W 122°53'0 0.0
2016-Nov-23 08:33N 46°03' W 122°53'0 0.0
2016-Nov-23 07:33N 46°03' W 122°53'0 0.0
2016-Nov-23 06:33N 46°03' W 122°53'7 2.3
2016-Nov-23 03:34N 46°08' W 122°60'1010.2
2016-Nov-23 02:33N 46°10' W 123°14'19 9.4
2016-Nov-23 00:34N 46°15' W 123°40'1010.1
2016-Nov-22 23:34N 46°11' W 123°54'9 9.5
2016-Nov-22 22:34N 46°14' W 124°07'17 8.4
2016-Nov-22 20:33N 46°01' W 124°22'3 2.8
2016-Nov-22 19:34N 46°04' W 124°24'7 3.7
2016-Nov-22 17:34N 46°11' W 124°25'8 8.1
2016-Nov-22 16:33N 46°12' W 124°37'10 9.9
2016-Nov-22 15:34N 46°12' W 124°51'1010.3
2016-Nov-22 14:34N 46°12' W 125°06'1110.8
2016-Nov-22 13:34N 46°12' W 125°22'  

Dump ship's entire track history